createdAt,value
2018-07-02T00:00:02.863Z,17.45
2018-07-02T00:01:03.573Z,17.34
2018-07-02T00:02:04.287Z,17.41
2018-07-02T00:03:04.998Z,17.38
2018-07-02T00:04:05.724Z,17.31
2018-07-02T00:05:06.436Z,17.33
2018-07-02T00:06:07.149Z,17.39
2018-07-02T00:07:07.860Z,17.46
2018-07-02T00:08:08.572Z,17.49
2018-07-02T00:09:09.282Z,17.48
2018-07-02T00:10:09.993Z,17.38
2018-07-02T00:11:10.706Z,17.36
2018-07-02T00:12:11.418Z,17.46
2018-07-02T00:13:12.143Z,17.38
2018-07-02T00:14:12.855Z,17.38
2018-07-02T00:15:13.566Z,17.38
2018-07-02T00:16:14.277Z,17.33
2018-07-02T00:17:14.990Z,17.36
2018-07-02T00:18:15.702Z,17.36
2018-07-02T00:19:16.414Z,17.38
2018-07-02T00:20:17.126Z,17.38
2018-07-02T00:21:17.838Z,17.34
2018-07-02T00:22:18.562Z,17.41
2018-07-02T00:23:19.277Z,17.33
2018-07-02T00:24:19.986Z,17.23
2018-07-02T00:25:20.711Z,17.30
2018-07-02T00:26:21.422Z,17.22
2018-07-02T00:27:22.134Z,17.29
2018-07-02T00:29:23.475Z,17.24
2018-07-02T00:30:24.184Z,17.24
2018-07-02T00:31:24.895Z,17.22
2018-07-02T00:32:25.607Z,17.20
2018-07-02T00:33:26.319Z,17.20
2018-07-02T00:34:27.031Z,17.02
2018-07-02T00:35:27.753Z,17.04
2018-07-02T00:36:28.465Z,17.01
2018-07-02T00:37:29.177Z,17.06
2018-07-02T00:38:29.888Z,17.19
2018-07-02T00:39:30.613Z,17.11
2018-07-02T00:40:31.325Z,17.05
2018-07-02T00:41:32.038Z,17.08
2018-07-02T00:42:32.796Z,16.99
2018-07-02T00:43:33.469Z,17.04
2018-07-02T00:44:34.181Z,16.93
2018-07-02T00:45:34.908Z,16.96
2018-07-02T00:46:35.616Z,17.06
2018-07-02T00:47:36.329Z,16.96
2018-07-02T00:48:37.041Z,16.99
2018-07-02T00:49:37.766Z,16.89
2018-07-02T00:50:38.479Z,16.84
2018-07-02T00:51:39.193Z,16.86
2018-07-02T00:52:39.907Z,16.93
2018-07-02T00:53:40.619Z,16.78
2018-07-02T00:54:41.333Z,16.83
2018-07-02T00:55:42.052Z,16.83
2018-07-02T00:56:42.777Z,16.93
2018-07-02T00:57:43.489Z,16.89
2018-07-02T00:58:44.201Z,16.78
2018-07-02T00:59:44.925Z,16.83
2018-07-02T01:00:45.636Z,16.76
2018-07-02T01:01:46.348Z,16.78
2018-07-02T01:02:47.066Z,16.76
2018-07-02T01:03:47.780Z,16.79
2018-07-02T01:04:48.493Z,16.81
2018-07-02T01:05:49.204Z,16.78
2018-07-02T01:06:49.915Z,16.69
2018-07-02T01:07:50.628Z,16.74
2018-07-02T01:08:51.345Z,16.69
2018-07-02T01:09:52.052Z,16.71
2018-07-02T01:10:52.764Z,16.75
2018-07-02T01:11:53.476Z,16.75
2018-07-02T01:12:54.189Z,16.74
2018-07-02T01:13:54.900Z,16.74
2018-07-02T01:14:55.614Z,16.76
2018-07-02T01:15:56.327Z,16.76
2018-07-02T01:16:57.033Z,16.75
2018-07-02T01:17:57.757Z,16.71
2018-07-02T01:18:58.482Z,16.72
2018-07-02T01:19:59.192Z,16.74
2018-07-02T01:20:59.905Z,16.75
2018-07-02T01:22:00.617Z,16.76
2018-07-02T01:23:01.331Z,16.71
2018-07-02T01:24:02.042Z,16.65
2018-07-02T01:25:02.756Z,16.74
2018-07-02T01:26:03.468Z,16.66
2018-07-02T01:27:04.193Z,16.68
2018-07-02T01:28:04.903Z,16.69
2018-07-02T01:29:05.616Z,16.61
2018-07-02T01:30:06.328Z,16.66
2018-07-02T01:31:07.039Z,16.69
2018-07-02T01:32:07.755Z,16.56
2018-07-02T01:33:08.468Z,16.60
2018-07-02T01:34:09.193Z,16.54
2018-07-02T01:35:09.910Z,16.54
2018-07-02T01:36:10.620Z,16.53
2018-07-02T01:37:11.332Z,16.53
2018-07-02T01:38:12.046Z,16.54
2018-07-02T01:39:12.758Z,16.46
2018-07-02T01:40:13.477Z,16.41
2018-07-02T01:41:14.191Z,16.39
2018-07-02T01:42:14.910Z,16.42
2018-07-02T01:43:15.621Z,16.35
2018-07-02T01:44:16.333Z,16.39
2018-07-02T01:45:17.056Z,16.38
2018-07-02T01:46:17.780Z,16.39
2018-07-02T01:47:18.506Z,16.36
2018-07-02T01:48:19.218Z,16.38
2018-07-02T01:49:19.932Z,16.39
2018-07-02T01:50:20.655Z,16.35
2018-07-02T01:51:21.366Z,16.28
2018-07-02T01:52:22.079Z,16.26
2018-07-02T01:53:22.790Z,16.13
2018-07-02T01:54:23.516Z,16.23
2018-07-02T01:55:24.228Z,16.21
2018-07-02T01:56:24.942Z,16.21
2018-07-02T01:57:25.663Z,16.08
2018-07-02T01:58:26.376Z,16.10
2018-07-02T01:59:27.088Z,16.04
2018-07-02T02:00:27.800Z,16.12
2018-07-02T02:01:28.523Z,16.04
2018-07-02T02:02:29.235Z,16.02
2018-07-02T02:03:29.948Z,15.95
2018-07-02T02:04:30.659Z,15.95
2018-07-02T02:05:31.371Z,15.92
2018-07-02T02:06:32.081Z,15.92
2018-07-02T02:07:32.792Z,15.84
2018-07-02T02:08:33.503Z,15.83
2018-07-02T02:09:34.231Z,15.82
2018-07-02T02:10:34.939Z,15.86
2018-07-02T02:11:35.651Z,15.80
2018-07-02T02:12:36.364Z,15.76
2018-07-02T02:13:37.075Z,15.76
2018-07-02T02:14:37.783Z,15.77
2018-07-02T02:15:38.496Z,15.73
2018-07-02T02:16:39.206Z,15.64
2018-07-02T02:17:39.931Z,15.64
2018-07-02T02:18:40.658Z,15.65
2018-07-02T02:19:41.370Z,15.65
2018-07-02T02:20:42.094Z,15.61
2018-07-02T02:21:42.806Z,15.57
2018-07-02T02:22:43.520Z,15.59
2018-07-02T02:23:44.230Z,15.62
2018-07-02T02:24:44.941Z,15.59
2018-07-02T02:25:45.652Z,15.58
2018-07-02T02:26:46.365Z,15.58
2018-07-02T02:27:47.087Z,15.64
2018-07-02T02:28:47.801Z,15.70
2018-07-02T02:29:48.511Z,15.64
2018-07-02T02:30:49.234Z,15.70
2018-07-02T02:31:49.947Z,15.55
2018-07-02T02:32:50.660Z,15.65
2018-07-02T02:33:51.372Z,15.46
2018-07-02T02:34:52.083Z,15.58
2018-07-02T02:35:52.795Z,15.51
2018-07-02T02:36:53.507Z,15.46
2018-07-02T02:37:54.218Z,15.44
2018-07-02T02:38:54.930Z,15.42
2018-07-02T02:39:55.642Z,15.40
2018-07-02T02:40:56.365Z,15.43
2018-07-02T02:41:57.078Z,15.39
2018-07-02T02:42:57.790Z,15.37
2018-07-02T02:43:58.502Z,15.40
2018-07-02T02:44:59.214Z,15.36
2018-07-02T02:45:59.924Z,15.37
2018-07-02T02:47:00.644Z,15.46
2018-07-02T02:48:01.356Z,15.47
2018-07-02T02:49:02.070Z,15.35
2018-07-02T02:50:02.786Z,15.39
2018-07-02T02:51:03.493Z,15.25
2018-07-02T02:52:04.208Z,15.29
2018-07-02T02:53:04.918Z,15.31
2018-07-02T02:54:05.632Z,15.35
2018-07-02T02:55:06.359Z,15.24
2018-07-02T02:56:07.083Z,15.33
2018-07-02T02:57:07.793Z,15.31
2018-07-02T02:58:08.518Z,15.29
2018-07-02T02:59:09.231Z,15.25
2018-07-02T03:00:09.948Z,15.28
2018-07-02T03:01:10.662Z,15.10
2018-07-02T03:02:11.376Z,15.07
2018-07-02T03:03:12.088Z,15.15
2018-07-02T03:04:12.799Z,15.14
2018-07-02T03:05:13.517Z,15.04
2018-07-02T03:06:14.235Z,15.03
2018-07-02T03:07:14.962Z,15.04
2018-07-02T03:08:15.676Z,15.03
2018-07-02T03:09:16.389Z,15.04
2018-07-02T03:10:17.103Z,14.92
2018-07-02T03:11:17.815Z,15.04
2018-07-02T03:12:18.527Z,15.06
2018-07-02T03:13:19.239Z,14.99
2018-07-02T03:14:19.953Z,14.97
2018-07-02T03:15:20.679Z,14.99
2018-07-02T03:16:21.408Z,15.00
2018-07-02T03:17:22.116Z,14.96
2018-07-02T03:18:22.839Z,15.02
2018-07-02T03:19:23.554Z,15.00
2018-07-02T03:20:24.319Z,14.99
2018-07-02T03:21:24.987Z,14.91
2018-07-02T03:22:25.710Z,14.86
2018-07-02T03:23:26.425Z,14.94
2018-07-02T03:24:27.139Z,14.94
2018-07-02T03:25:27.857Z,14.91
2018-07-02T03:26:28.569Z,14.85
2018-07-02T03:27:29.282Z,14.89
2018-07-02T03:28:30.001Z,14.84
2018-07-02T03:29:30.713Z,14.86
2018-07-02T03:30:31.451Z,14.84
2018-07-02T03:31:32.160Z,14.88
2018-07-02T03:32:32.888Z,14.81
2018-07-02T03:33:33.602Z,14.86
2018-07-02T03:34:34.327Z,14.77
2018-07-02T03:35:35.073Z,14.77
2018-07-02T03:36:35.788Z,14.69
2018-07-02T03:37:36.503Z,14.73
2018-07-02T03:38:37.217Z,14.79
2018-07-02T03:39:37.942Z,14.84
2018-07-02T03:40:38.667Z,14.72
2018-07-02T03:41:39.407Z,14.82
2018-07-02T03:42:40.122Z,14.84
2018-07-02T03:43:40.835Z,14.82
2018-07-02T03:44:41.549Z,14.84
2018-07-02T03:45:42.264Z,14.84
2018-07-02T03:46:42.991Z,14.85
2018-07-02T03:47:43.705Z,14.92
2018-07-02T03:48:44.421Z,14.79
2018-07-02T03:49:45.136Z,14.82
2018-07-02T03:50:45.851Z,14.78
2018-07-02T03:51:46.575Z,14.86
2018-07-02T03:52:47.290Z,14.77
2018-07-02T03:53:48.020Z,14.88
2018-07-02T03:54:48.744Z,14.88
2018-07-02T03:55:49.460Z,14.86
2018-07-02T03:56:50.175Z,14.88
2018-07-02T03:57:50.891Z,14.94
2018-07-02T03:58:51.607Z,14.94
2018-07-02T03:59:52.321Z,14.94
2018-07-02T04:00:53.038Z,14.94
2018-07-02T04:01:53.757Z,14.85
2018-07-02T04:02:54.480Z,14.82
2018-07-02T04:03:55.198Z,14.92
2018-07-02T04:04:55.926Z,14.85
2018-07-02T04:05:56.641Z,14.96
2018-07-02T04:06:57.356Z,14.99
2018-07-02T04:07:58.073Z,14.92
2018-07-02T04:08:58.800Z,15.00
2018-07-02T04:09:59.517Z,14.96
2018-07-02T04:11:00.232Z,14.99
2018-07-02T04:12:00.967Z,14.97
2018-07-02T04:13:01.710Z,15.00
2018-07-02T04:14:02.387Z,14.97
2018-07-02T04:15:03.101Z,15.00
2018-07-02T04:16:03.823Z,15.09
2018-07-02T04:17:04.540Z,15.07
2018-07-02T04:18:05.256Z,15.04
2018-07-02T04:19:05.971Z,15.03
2018-07-02T04:20:06.688Z,15.11
2018-07-02T04:21:07.405Z,15.10
2018-07-02T04:22:08.120Z,15.09
2018-07-02T04:23:08.837Z,15.15
2018-07-02T04:24:09.554Z,15.17
2018-07-02T04:25:10.271Z,15.15
2018-07-02T04:26:10.988Z,15.19
2018-07-02T04:27:11.704Z,15.10
2018-07-02T04:28:12.434Z,15.14
2018-07-02T04:29:13.147Z,15.14
2018-07-02T04:30:13.862Z,15.24
2018-07-02T04:31:14.582Z,15.31
2018-07-02T04:32:15.297Z,15.31
2018-07-02T04:33:16.015Z,15.37
2018-07-02T04:34:16.772Z,15.43
2018-07-02T04:35:17.458Z,15.43
2018-07-02T04:36:18.174Z,15.37
2018-07-02T04:37:18.889Z,15.46
2018-07-02T04:38:19.619Z,15.51
2018-07-02T04:39:20.335Z,15.55
2018-07-02T04:40:21.051Z,15.68
2018-07-02T04:41:21.774Z,15.67
2018-07-02T04:42:22.492Z,15.62
2018-07-02T04:43:23.208Z,15.67
2018-07-02T04:44:23.935Z,15.67
2018-07-02T04:45:24.651Z,15.73
2018-07-02T04:46:25.370Z,15.79
2018-07-02T04:47:26.086Z,15.72
2018-07-02T04:48:26.803Z,15.82
2018-07-02T04:49:27.515Z,15.90
2018-07-02T04:50:28.231Z,15.80
2018-07-02T04:51:28.948Z,15.80
2018-07-02T04:52:29.666Z,15.83
2018-07-02T04:53:30.380Z,15.92
2018-07-02T04:54:31.100Z,15.92
2018-07-02T04:55:31.826Z,16.00
2018-07-02T04:56:32.543Z,15.95
2018-07-02T04:57:33.258Z,15.91
2018-07-02T04:58:33.986Z,16.01
2018-07-02T04:59:34.750Z,16.02
2018-07-02T05:00:35.428Z,16.09
2018-07-02T05:01:36.145Z,16.13
2018-07-02T05:02:36.873Z,16.09
2018-07-02T05:03:37.589Z,16.09
2018-07-02T05:04:38.305Z,16.21
2018-07-02T05:05:39.025Z,16.24
2018-07-02T05:06:39.738Z,16.17
2018-07-02T05:07:40.500Z,16.29
2018-07-02T05:08:41.171Z,16.26
2018-07-02T05:09:41.890Z,16.35
2018-07-02T05:10:42.606Z,16.35
2018-07-02T05:11:43.324Z,16.33
2018-07-02T05:12:44.040Z,16.50
2018-07-02T05:13:44.772Z,16.49
2018-07-02T05:14:45.488Z,16.54
2018-07-02T05:15:46.200Z,16.51
2018-07-02T05:16:46.931Z,16.58
2018-07-02T05:17:47.811Z,16.61
2018-07-02T05:18:48.361Z,16.66
2018-07-02T05:19:49.089Z,16.74
2018-07-02T05:20:49.806Z,16.79
2018-07-02T05:21:50.522Z,16.76
2018-07-02T05:22:51.240Z,16.87
2018-07-02T05:23:51.956Z,16.86
2018-07-02T05:24:52.673Z,16.93
2018-07-02T05:25:53.403Z,16.94
2018-07-02T05:26:54.249Z,17.04
2018-07-02T05:27:54.838Z,17.02
2018-07-02T05:28:55.555Z,16.97
2018-07-02T05:29:56.285Z,17.11
2018-07-02T05:30:57.052Z,17.11
2018-07-02T05:31:57.742Z,17.16
2018-07-02T05:32:58.462Z,17.19
2018-07-02T05:33:59.179Z,17.27
2018-07-02T05:34:59.896Z,17.26
2018-07-02T05:36:00.613Z,17.30
2018-07-02T05:37:01.331Z,17.31
2018-07-02T05:38:02.045Z,17.36
2018-07-02T05:39:02.773Z,17.36
2018-07-02T05:40:03.490Z,17.34
2018-07-02T05:41:04.207Z,17.46
2018-07-02T05:42:04.923Z,17.45
2018-07-02T05:43:05.654Z,17.54
2018-07-02T05:44:06.371Z,17.54
2018-07-02T05:45:07.090Z,17.56
2018-07-02T05:46:07.807Z,17.52
2018-07-02T05:47:08.532Z,17.64
2018-07-02T05:48:09.250Z,17.64
2018-07-02T05:49:09.967Z,17.71
2018-07-02T05:50:10.684Z,17.74
2018-07-02T05:51:11.404Z,17.67
2018-07-02T05:52:12.121Z,17.83
2018-07-02T05:53:12.835Z,17.87
2018-07-02T05:54:13.551Z,17.89
2018-07-02T05:55:14.270Z,17.85
2018-07-02T05:56:14.988Z,17.85
2018-07-02T05:57:15.872Z,17.98
2018-07-02T05:58:16.433Z,18.07
2018-07-02T05:59:17.153Z,18.03
2018-07-02T06:00:17.923Z,18.01
2018-07-02T06:01:18.600Z,18.04
2018-07-02T06:02:19.318Z,18.13
2018-07-02T06:03:20.035Z,18.20
2018-07-02T06:04:20.751Z,18.18
2018-07-02T06:05:21.470Z,18.20
2018-07-02T06:06:22.189Z,18.19
2018-07-02T06:07:22.920Z,18.10
2018-07-02T06:08:23.643Z,18.10
2018-07-02T06:09:24.358Z,18.19
2018-07-02T06:10:25.076Z,18.10
2018-07-02T06:11:25.795Z,18.22
2018-07-02T06:12:26.516Z,18.20
2018-07-02T06:13:27.245Z,18.18
2018-07-02T06:14:27.974Z,18.26
2018-07-02T06:15:28.693Z,18.40
2018-07-02T06:16:29.488Z,18.40
2018-07-02T06:17:30.128Z,18.56
2018-07-02T06:18:30.849Z,18.62
2018-07-02T06:19:31.568Z,18.74
2018-07-02T06:20:32.290Z,18.70
2018-07-02T06:21:33.021Z,18.74
2018-07-02T06:22:33.740Z,18.81
2018-07-02T06:23:34.460Z,18.86
2018-07-02T06:24:35.178Z,18.80
2018-07-02T06:25:35.897Z,18.89
2018-07-02T06:26:36.615Z,18.80
2018-07-02T06:27:37.334Z,18.92
2018-07-02T06:28:38.052Z,18.90
2018-07-02T06:29:38.774Z,18.93
2018-07-02T06:30:39.492Z,19.11
2018-07-02T06:31:40.210Z,19.24
2018-07-02T06:32:40.929Z,19.18
2018-07-02T06:33:41.649Z,19.16
2018-07-02T06:34:42.367Z,19.19
2018-07-02T06:35:43.086Z,19.29
2018-07-02T06:36:43.816Z,19.29
2018-07-02T06:37:44.548Z,19.30
2018-07-02T06:38:45.268Z,19.24
2018-07-02T06:39:45.998Z,19.34
2018-07-02T06:40:46.715Z,19.24
2018-07-02T06:41:47.433Z,19.21
2018-07-02T06:42:48.152Z,19.31
2018-07-02T06:43:48.872Z,19.33
2018-07-02T06:44:49.592Z,19.49
2018-07-02T06:45:50.310Z,19.48
2018-07-02T06:46:51.039Z,19.55
2018-07-02T06:47:51.773Z,19.62
2018-07-02T06:48:52.489Z,19.69
2018-07-02T06:49:53.210Z,19.66
2018-07-02T06:50:53.929Z,19.81
2018-07-02T06:51:54.644Z,19.88
2018-07-02T06:52:55.364Z,19.81
2018-07-02T06:53:56.092Z,19.94
2018-07-02T06:54:56.824Z,19.99
2018-07-02T06:55:57.544Z,20.00
2018-07-02T06:56:58.262Z,20.11
2018-07-02T06:57:58.980Z,20.09
2018-07-02T06:58:59.700Z,20.14
2018-07-02T07:00:00.419Z,20.25
2018-07-02T07:01:01.147Z,20.25
2018-07-02T07:02:01.876Z,20.31
2018-07-02T07:03:02.603Z,20.29
2018-07-02T07:04:03.323Z,20.25
2018-07-02T07:05:04.059Z,20.28
2018-07-02T07:06:04.774Z,20.26
2018-07-02T07:07:05.492Z,20.34
2018-07-02T07:08:06.210Z,20.41
2018-07-02T07:09:06.940Z,20.50
2018-07-02T07:10:07.659Z,20.58
2018-07-02T07:11:08.382Z,20.59
2018-07-02T07:12:09.102Z,20.70
2018-07-02T07:13:09.822Z,20.70
2018-07-02T07:14:10.542Z,20.69
2018-07-02T07:15:11.259Z,20.78
2018-07-02T07:16:11.979Z,20.82
2018-07-02T07:17:12.709Z,20.92
2018-07-02T07:18:13.444Z,21.03
2018-07-02T07:19:14.162Z,21.12
2018-07-02T07:20:14.895Z,21.11
2018-07-02T07:21:15.615Z,21.18
2018-07-02T07:22:16.337Z,21.22
2018-07-02T07:23:17.057Z,21.29
2018-07-02T07:24:17.781Z,21.24
2018-07-02T07:25:18.499Z,21.06
2018-07-02T07:26:19.219Z,21.22
2018-07-02T07:27:19.941Z,21.15
2018-07-02T07:28:20.660Z,21.11
2018-07-02T07:29:21.384Z,21.24
2018-07-02T07:30:22.106Z,21.27
2018-07-02T07:31:22.825Z,21.32
2018-07-02T07:32:23.542Z,21.30
2018-07-02T07:33:24.265Z,21.48
2018-07-02T07:34:24.986Z,21.45
2018-07-02T07:35:25.720Z,21.55
2018-07-02T07:36:26.459Z,21.62
2018-07-02T07:37:27.221Z,21.70
2018-07-02T07:38:27.913Z,21.73
2018-07-02T07:39:28.632Z,21.85
2018-07-02T07:40:29.355Z,21.83
2018-07-02T07:41:30.074Z,21.95
2018-07-02T07:42:30.795Z,21.98
2018-07-02T07:43:31.517Z,22.11
2018-07-02T07:44:32.240Z,22.11
2018-07-02T07:45:32.976Z,22.08
2018-07-02T07:46:33.699Z,22.20
2018-07-02T07:47:34.425Z,22.28
2018-07-02T07:48:35.147Z,22.10
2018-07-02T07:49:35.873Z,22.08
2018-07-02T07:50:36.597Z,22.02
2018-07-02T07:51:37.323Z,22.17
2018-07-02T07:52:38.049Z,22.18
2018-07-02T07:53:38.776Z,22.20
2018-07-02T07:54:39.511Z,22.17
2018-07-02T07:55:40.237Z,22.30
2018-07-02T07:56:40.960Z,22.41
2018-07-02T07:57:41.684Z,22.38
2018-07-02T07:58:42.406Z,22.62
2018-07-02T07:59:43.132Z,22.78
2018-07-02T08:00:43.859Z,23.10
2018-07-02T08:01:44.586Z,23.18
2018-07-02T08:02:45.323Z,23.32
2018-07-02T08:03:46.094Z,23.48
2018-07-02T08:04:46.776Z,23.71
2018-07-02T08:05:47.502Z,23.69
2018-07-02T08:06:48.244Z,23.83
2018-07-02T08:07:48.972Z,23.93
2018-07-02T08:08:49.703Z,24.06
2018-07-02T08:09:50.430Z,23.81
2018-07-02T08:10:51.173Z,23.74
2018-07-02T08:11:51.903Z,23.81
2018-07-02T08:12:52.631Z,23.95
2018-07-02T08:13:53.363Z,23.86
2018-07-02T08:14:54.094Z,23.83
2018-07-02T08:15:54.825Z,23.99
2018-07-02T08:16:55.558Z,24.14
2018-07-02T08:17:56.291Z,24.45
2018-07-02T08:18:57.034Z,24.48
2018-07-02T08:19:57.756Z,24.73
2018-07-02T08:20:58.487Z,24.78
2018-07-02T08:21:59.234Z,24.91
2018-07-02T08:22:59.964Z,24.61
2018-07-02T08:24:00.697Z,24.65
2018-07-02T08:25:01.426Z,24.63
2018-07-02T08:26:02.157Z,24.66
2018-07-02T08:27:02.891Z,24.81
2018-07-02T08:28:03.634Z,24.76
2018-07-02T08:29:04.378Z,24.74
2018-07-02T08:30:05.111Z,24.65
2018-07-02T08:31:05.843Z,24.39
2018-07-02T08:32:06.574Z,24.36
2018-07-02T08:33:07.335Z,24.14
2018-07-02T08:34:08.052Z,24.02
2018-07-02T08:35:08.790Z,24.32
2018-07-02T08:36:09.520Z,24.78
2018-07-02T08:37:10.253Z,25.04
2018-07-02T08:38:10.986Z,25.25
2018-07-02T08:39:11.719Z,25.48
2018-07-02T08:40:12.453Z,25.62
2018-07-02T08:41:13.193Z,25.80
2018-07-02T08:42:13.923Z,25.53
2018-07-02T08:43:14.655Z,25.55
2018-07-02T08:44:15.401Z,25.68
2018-07-02T08:45:16.134Z,25.70
2018-07-02T08:46:16.883Z,25.85
2018-07-02T08:47:17.618Z,25.81
2018-07-02T08:48:18.351Z,25.50
2018-07-02T08:49:19.089Z,25.69
2018-07-02T08:50:19.836Z,25.93
2018-07-02T08:51:20.585Z,26.36
2018-07-02T08:52:21.322Z,25.95
2018-07-02T08:53:22.059Z,25.68
2018-07-02T08:54:22.799Z,25.81
2018-07-02T08:55:23.541Z,25.63
2018-07-02T08:56:24.278Z,25.73
2018-07-02T08:57:25.020Z,25.40
2018-07-02T08:58:25.767Z,25.63
2018-07-02T08:59:26.500Z,25.65
2018-07-02T09:00:27.253Z,25.62
2018-07-02T09:01:27.998Z,25.59
2018-07-02T09:02:28.740Z,25.38
2018-07-02T09:03:29.496Z,25.80
2018-07-02T09:04:30.239Z,26.09
2018-07-02T09:05:30.979Z,26.29
2018-07-02T09:06:31.724Z,26.37
2018-07-02T09:07:32.466Z,26.33
2018-07-02T09:08:33.220Z,26.44
2018-07-02T09:09:33.973Z,26.85
2018-07-02T09:10:34.709Z,26.80
2018-07-02T09:11:35.456Z,26.83
2018-07-02T09:12:36.197Z,26.77
2018-07-02T09:13:36.937Z,26.83
2018-07-02T09:14:37.712Z,26.83
2018-07-02T09:15:38.417Z,26.70
2018-07-02T09:16:39.158Z,26.99
2018-07-02T09:17:39.926Z,27.14
2018-07-02T09:18:40.644Z,27.68
2018-07-02T09:19:41.382Z,27.77
2018-07-02T09:20:42.168Z,27.73
2018-07-02T09:21:42.873Z,27.87
2018-07-02T09:22:43.615Z,28.07
2018-07-02T09:23:44.380Z,28.62
2018-07-02T09:24:45.103Z,28.69
2018-07-02T09:25:45.838Z,28.67
2018-07-02T09:26:46.579Z,28.52
2018-07-02T09:27:47.322Z,28.75
2018-07-02T09:28:48.064Z,28.59
2018-07-02T09:29:48.987Z,28.89
2018-07-02T09:30:49.547Z,28.75
2018-07-02T09:31:50.301Z,28.89
2018-07-02T09:32:51.043Z,28.62
2018-07-02T09:33:51.785Z,27.98
2018-07-02T09:34:52.528Z,28.12
2018-07-02T09:35:53.268Z,27.73
2018-07-02T09:36:54.023Z,28.10
2018-07-02T09:37:54.766Z,28.05
2018-07-02T09:38:55.506Z,27.85
2018-07-02T09:39:56.249Z,28.39
2018-07-02T09:40:56.991Z,28.60
2018-07-02T09:41:57.730Z,28.82
2018-07-02T09:42:58.486Z,28.91
2018-07-02T09:43:59.235Z,28.54
2018-07-02T09:44:59.973Z,27.92
2018-07-02T09:46:00.714Z,27.60
2018-07-02T09:47:01.465Z,28.00
2018-07-02T09:48:02.206Z,28.14
2018-07-02T09:49:02.946Z,28.07
2018-07-02T09:50:03.684Z,28.29
2018-07-02T09:51:04.422Z,28.05
2018-07-02T09:52:05.164Z,28.14
2018-07-02T09:53:06.128Z,28.15
2018-07-02T09:54:06.641Z,27.71
2018-07-02T09:55:07.381Z,28.27
2018-07-02T09:56:08.138Z,27.89
2018-07-02T09:57:08.870Z,28.19
2018-07-02T09:58:09.621Z,28.54
2018-07-02T09:59:10.360Z,28.91
2018-07-02T10:00:11.098Z,29.12
2018-07-02T10:01:11.838Z,29.49
2018-07-02T10:02:12.577Z,29.82
2018-07-02T10:03:13.319Z,30.27
2018-07-02T10:04:14.072Z,30.35
2018-07-02T10:05:14.813Z,30.51
2018-07-02T10:06:15.612Z,30.63
2018-07-02T10:07:16.299Z,30.65
2018-07-02T10:08:17.040Z,30.90
2018-07-02T10:09:17.794Z,31.37
2018-07-02T10:10:18.530Z,30.96
2018-07-02T10:11:19.267Z,31.42
2018-07-02T10:12:20.019Z,31.14
2018-07-02T10:13:20.769Z,30.55
2018-07-02T10:14:21.508Z,31.03
2018-07-02T10:15:22.259Z,31.29
2018-07-02T10:16:22.998Z,31.71
2018-07-02T10:17:23.736Z,31.96
2018-07-02T10:18:24.474Z,31.65
2018-07-02T10:19:25.211Z,31.65
2018-07-02T10:20:25.988Z,31.61
2018-07-02T10:21:26.711Z,31.28
2018-07-02T10:22:27.453Z,30.75
2018-07-02T10:23:28.230Z,31.06
2018-07-02T10:25:37.933Z,30.59
2018-07-02T10:26:38.670Z,30.80
2018-07-02T10:27:39.423Z,30.35
2018-07-02T10:28:40.160Z,29.45
2018-07-02T10:29:40.898Z,29.45
2018-07-02T10:30:41.677Z,29.57
2018-07-02T10:31:42.392Z,29.78
2018-07-02T10:32:43.138Z,30.27
2018-07-02T10:33:43.887Z,30.47
2018-07-02T10:34:44.672Z,30.39
2018-07-02T10:35:45.376Z,30.85
2018-07-02T10:36:46.129Z,30.70
2018-07-02T10:37:46.866Z,30.83
2018-07-02T10:38:47.605Z,30.99
2018-07-02T10:39:48.345Z,31.39
2018-07-02T10:40:49.096Z,31.22
2018-07-02T10:41:49.835Z,30.91
2018-07-02T10:42:50.577Z,30.73
2018-07-02T10:43:51.313Z,30.53
2018-07-02T10:44:52.055Z,30.47
2018-07-02T10:46:54.521Z,29.17
2018-07-02T10:48:47.926Z,28.60
2018-07-02T10:49:48.676Z,28.70
2018-07-02T10:50:49.425Z,28.52
2018-07-02T10:51:50.176Z,28.19
2018-07-02T10:52:50.918Z,28.93
2018-07-02T10:53:51.649Z,29.49
2018-07-02T10:54:52.402Z,29.81
2018-07-02T10:55:53.138Z,30.27
2018-07-02T10:56:53.878Z,30.43
2018-07-02T10:57:54.627Z,30.63
2018-07-02T10:58:55.365Z,30.83
2018-07-02T10:59:56.103Z,30.78
2018-07-02T11:00:56.842Z,31.06
2018-07-02T11:01:57.580Z,31.29
2018-07-02T11:02:58.317Z,31.21
2018-07-02T11:03:59.054Z,31.40
2018-07-02T11:04:59.803Z,31.28
2018-07-02T11:06:00.544Z,31.37
2018-07-02T11:07:01.283Z,31.52
2018-07-02T11:08:02.021Z,31.78
2018-07-02T11:09:02.758Z,31.37
2018-07-02T11:10:03.496Z,31.34
2018-07-02T11:11:04.281Z,30.85
2018-07-02T11:12:04.978Z,30.46
2018-07-02T11:13:05.715Z,30.54
2018-07-02T11:14:06.455Z,30.32
2018-07-02T11:15:07.192Z,30.37
2018-07-02T11:16:07.931Z,30.47
2018-07-02T11:17:08.699Z,30.70
2018-07-02T11:18:09.414Z,30.73
2018-07-02T11:19:10.164Z,30.09
2018-07-02T11:20:10.903Z,29.90
2018-07-02T11:21:11.641Z,29.44
2018-07-02T11:22:12.382Z,29.57
2018-07-02T11:23:13.138Z,28.89
2018-07-02T11:24:13.873Z,28.74
2018-07-02T11:25:14.610Z,29.29
2018-07-02T11:26:15.351Z,29.82
2018-07-02T11:27:16.090Z,30.50
2018-07-02T11:28:16.829Z,30.81
2018-07-02T11:29:17.567Z,29.93
2018-07-02T11:30:18.307Z,29.87
2018-07-02T11:31:19.047Z,29.75
2018-07-02T11:32:19.786Z,29.88
2018-07-02T11:33:20.525Z,29.75
2018-07-02T11:34:21.266Z,30.16
2018-07-02T11:35:22.004Z,30.50
2018-07-02T11:36:22.747Z,29.88
2018-07-02T11:37:23.516Z,30.12
2018-07-02T11:38:24.219Z,30.15
2018-07-02T11:39:24.954Z,30.75
2018-07-02T11:40:25.702Z,31.05
2018-07-02T11:41:26.442Z,31.21
2018-07-02T11:42:27.182Z,31.34
2018-07-02T11:43:27.919Z,31.80
2018-07-02T11:44:28.656Z,31.80
2018-07-02T11:45:29.395Z,31.84
2018-07-02T11:46:30.134Z,32.29
2018-07-02T11:47:30.872Z,32.74
2018-07-02T11:48:31.613Z,32.93
2018-07-02T11:49:32.352Z,33.08
2018-07-02T11:50:33.103Z,33.28
2018-07-02T11:51:33.852Z,33.19
2018-07-02T11:52:34.597Z,32.77
2018-07-02T11:53:35.348Z,33.09
2018-07-02T11:54:36.088Z,32.90
2018-07-02T11:55:36.841Z,32.78
2018-07-02T11:56:37.582Z,32.95
2018-07-02T11:57:38.319Z,32.53
2018-07-02T11:58:39.098Z,32.93
2018-07-02T11:59:39.838Z,33.34
2018-07-02T12:00:40.591Z,33.40
2018-07-02T12:01:41.327Z,33.80
2018-07-02T12:02:42.066Z,34.16
2018-07-02T12:03:42.817Z,34.32
2018-07-02T12:04:43.555Z,33.80
2018-07-02T12:05:44.324Z,33.69
2018-07-02T12:06:45.042Z,33.61
2018-07-02T12:07:45.781Z,33.73
2018-07-02T12:08:46.520Z,33.55
2018-07-02T12:09:47.272Z,33.68
2018-07-02T12:10:48.011Z,33.94
2018-07-02T12:11:48.749Z,34.23
2018-07-02T12:12:49.503Z,34.32
2018-07-02T12:13:50.258Z,34.45
2018-07-02T12:14:50.999Z,34.51
2018-07-02T12:15:51.740Z,34.54
2018-07-02T12:16:52.489Z,34.47
2018-07-02T12:17:53.229Z,34.67
2018-07-02T12:18:53.970Z,34.32
2018-07-02T12:19:54.709Z,34.55
2018-07-02T12:20:55.460Z,34.45
2018-07-02T12:21:56.213Z,34.48
2018-07-02T12:22:56.959Z,34.13
2018-07-02T12:23:57.688Z,34.20
2018-07-02T12:24:58.430Z,34.25
2018-07-02T12:25:59.168Z,34.30
2018-07-02T12:26:59.908Z,34.16
2018-07-02T12:28:00.650Z,34.54
2018-07-02T12:29:01.390Z,34.86
2018-07-02T12:30:02.130Z,34.42
2018-07-02T12:31:02.868Z,33.94
2018-07-02T12:32:03.614Z,33.87
2018-07-02T12:33:04.345Z,33.76
2018-07-02T12:34:05.086Z,34.01
2018-07-02T12:35:05.824Z,34.38
2018-07-02T12:36:06.563Z,34.39
2018-07-02T12:37:07.314Z,34.29
2018-07-02T12:38:08.052Z,34.10
2018-07-02T12:39:08.796Z,34.29
2018-07-02T12:40:09.532Z,33.90
2018-07-02T12:41:10.280Z,34.05
2018-07-02T12:42:11.012Z,34.36
2018-07-02T12:43:11.750Z,34.61
2018-07-02T12:44:12.491Z,34.57
2018-07-02T12:45:13.229Z,34.75
2018-07-02T12:46:13.969Z,34.93
2018-07-02T12:47:14.708Z,34.30
2018-07-02T12:48:15.458Z,34.32
2018-07-02T12:49:16.215Z,34.29
2018-07-02T12:50:16.964Z,33.96
2018-07-02T12:51:17.703Z,33.22
2018-07-02T12:52:18.454Z,33.45
2018-07-02T12:53:19.192Z,33.84
2018-07-02T12:54:19.979Z,33.64
2018-07-02T12:55:20.669Z,32.48
2018-07-02T12:56:21.408Z,31.22
2018-07-02T12:57:22.147Z,31.80
2018-07-02T12:58:22.887Z,32.23
2018-07-02T12:59:23.624Z,32.67
2018-07-02T13:00:24.364Z,33.02
2018-07-02T13:01:25.101Z,33.57
2018-07-02T13:02:25.839Z,33.40
2018-07-02T13:03:26.578Z,32.90
2018-07-02T13:04:27.321Z,32.63
2018-07-02T13:05:28.057Z,32.73